Stations météo

réclame
Mon MeteoGroup
Lluc, Espagne (8304): Température de l'air & dewpoint: 15.09.2018 23:00:00 - 21.09.2018 23:00:00 (CEST)Lluc, Espagne (8304): Vitesse du vent & gusts: 15.09.2018 23:00:00 - 21.09.2018 23:00:00 (CEST)Lluc, Espagne (8304): Direction du vent: 15.09.2018 23:00:00 - 21.09.2018 23:00:00 (CEST)Lluc, Espagne (8304): Quantités de précipitations: 15.09.2018 23:00:00 - 21.09.2018 23:00:00 (CEST)
Date & Time tt [°C] td [°C] ff [km/h] ff [knt] fx [km/h] fx [knt] dd rr [mm]
21.09.2018 23:00:00 17,8 15,6 0 0 0 0 N 0,0
21.09.2018 22:00:00 18,6 16,0 0 0 0 0 N 0,0
21.09.2018 21:00:00 20,1 16,9 0 0 11 6 N 0,0
21.09.2018 20:00:00 21,2 17,6 2 1 9 5 SE -
21.09.2018 19:00:00 22,7 17,4 0 0 10 5 N 0,0
21.09.2018 18:00:00 24,5 16,5 4 2 13 7 SE 0,0
21.09.2018 17:00:00 25,2 16,3 2 1 11 6 SSE 0,0
21.09.2018 16:00:00 25,1 17,8 4 2 12 7 NW 0,0
21.09.2018 15:00:00 24,9 17,6 0 0 13 7 SSW 0,0
21.09.2018 14:00:00 25,8 16,0 3 2 10 5 SE -
21.09.2018 13:00:00 26,8 13,6 1 1 9 5 SE 0,0
21.09.2018 12:00:00 26,0 12,1 0 0 0 0 N 0,0
21.09.2018 11:00:00 24,3 14,7 0 0 0 0 N 0,0
21.09.2018 10:00:00 20,2 17,2 0 0 0 0 N 0,0
21.09.2018 09:00:00 15,6 13,8 0 0 0 0 N 0,0
21.09.2018 08:00:00 13,2 11,4 0 0 0 0 N -
21.09.2018 07:00:00 13,3 11,6 0 0 0 0 N 0,0
21.09.2018 06:00:00 13,6 11,8 0 0 0 0 N 0,0
21.09.2018 05:00:00 14,0 12,2 0 0 0 0 N 0,0
21.09.2018 04:00:00 14,4 12,6 0 0 0 0 N 0,0
21.09.2018 03:00:00 14,6 12,8 0 0 0 0 N 0,0
21.09.2018 02:00:00 15,0 13,1 0 0 0 0 N -
21.09.2018 01:00:00 15,3 13,4 0 0 0 0 N 0,0
21.09.2018 00:00:00 15,8 13,9 0 0 0 0 N 0,0
20.09.2018 23:00:00 16,4 14,2 0 0 0 0 N 0,0
20.09.2018 22:00:00 17,2 15,0 0 0 0 0 N 0,0
20.09.2018 21:00:00 18,3 15,9 0 0 0 0 N 0,0
20.09.2018 20:00:00 19,5 16,9 0 0 0 0 N -
20.09.2018 19:00:00 20,9 17,3 0 0 6 4 N 0,0
20.09.2018 18:00:00 22,0 16,7 2 1 8 5 SW 0,0
20.09.2018 17:00:00 - - 0 0 11 6 WSW 0,0
20.09.2018 16:00:00 24,2 14,6 1 0 13 7 S 0,0
20.09.2018 15:00:00 24,9 15,0 2 1 15 8 WSW 0,0
20.09.2018 14:00:00 24,7 14,1 1 0 8 5 E -
20.09.2018 13:00:00 24,8 13,9 1 0 8 5 W 0,0
20.09.2018 12:00:00 23,9 15,2 1 0 8 4 W 0,0
20.09.2018 11:00:00 21,6 16,1 1 1 6 4 NW 0,0
20.09.2018 10:00:00 20,1 18,2 0 0 0 0 N 0,0
20.09.2018 09:00:00 15,6 13,8 0 0 0 0 N 0,0
20.09.2018 08:00:00 12,9 11,1 0 0 0 0 N -
20.09.2018 07:00:00 12,9 11,1 0 0 0 0 N 0,0
20.09.2018 06:00:00 13,0 11,2 0 0 0 0 N 0,0
20.09.2018 05:00:00 13,2 11,4 0 0 0 0 N 0,0
20.09.2018 04:00:00 13,4 11,7 0 0 0 0 N 0,0
20.09.2018 03:00:00 13,8 12,0 0 0 0 0 N 0,0
20.09.2018 02:00:00 14,3 12,5 0 0 0 0 N -
20.09.2018 01:00:00 14,7 12,7 0 0 0 0 N 0,0
20.09.2018 00:00:00 15,2 13,3 0 0 0 0 N 0,0
19.09.2018 23:00:00 15,7 13,8 0 0 0 0 N 0,0
19.09.2018 22:00:00 16,4 14,4 0 0 0 0 N 0,0
19.09.2018 21:00:00 17,0 14,8 0 0 0 0 N 0,0
19.09.2018 20:00:00 17,6 15,1 0 0 4 2 N -
19.09.2018 19:00:00 19,3 15,8 0 0 9 5 N 0,0
19.09.2018 18:00:00 21,7 16,9 6 3 16 9 SW 0,0
19.09.2018 17:00:00 22,7 17,9 1 1 12 7 S 0,0
19.09.2018 16:00:00 22,2 18,2 1 1 7 4 SSE 0,0
19.09.2018 15:00:00 21,7 19,3 1 1 10 6 W 0,0
19.09.2018 14:00:00 20,0 17,4 0 0 15 8 N -
19.09.2018 13:00:00 22,9 17,4 0 0 11 6 N 0,0
19.09.2018 12:00:00 21,9 17,5 3 2 16 8 E 0,1
19.09.2018 11:00:00 22,7 18,0 0 0 6 3 W 0,0
19.09.2018 10:00:00 21,8 19,7 1 1 7 4 SW 0,0
19.09.2018 09:00:00 18,5 16,6 0 0 0 0 N 0,0
19.09.2018 08:00:00 16,7 14,9 0 0 0 0 N -
19.09.2018 07:00:00 16,3 14,5 0 0 0 0 N 0,0
19.09.2018 06:00:00 16,2 14,4 0 0 0 0 N 0,0
19.09.2018 05:00:00 16,6 14,8 0 0 0 0 N 0,0
19.09.2018 04:00:00 16,8 15,0 0 0 0 0 N 0,0
19.09.2018 03:00:00 17,3 15,4 0 0 0 0 N 0,0
19.09.2018 02:00:00 17,8 16,0 0 0 0 0 N -
19.09.2018 01:00:00 17,8 16,0 0 0 0 0 N 0,0
19.09.2018 00:00:00 17,8 16,0 0 0 - - N -
18.09.2018 23:00:00 18,2 16,1 0 0 0 0 N 0,0
18.09.2018 22:00:00 18,4 16,4 0 0 4 2 N 0,0
18.09.2018 21:00:00 19,1 17,1 0 0 7 4 N 0,0
18.09.2018 20:00:00 19,4 17,0 0 0 12 6 N -
18.09.2018 19:00:00 20,8 17,8 5 3 20 11 SSE 0,0
18.09.2018 18:00:00 21,2 17,8 6 3 19 11 ESE 0,0
18.09.2018 17:00:00 21,4 18,0 4 2 17 9 SE 0,0
18.09.2018 16:00:00 20,0 17,8 5 3 39 21 SE 15,3
18.09.2018 15:00:00 20,7 18,2 0 0 7 4 NW 6,0
18.09.2018 14:00:00 22,1 17,9 1 1 16 8 WSW -
18.09.2018 13:00:00 22,9 16,9 4 2 19 10 SSE 0,0
18.09.2018 12:00:00 23,5 15,8 1 1 10 5 SSE 0,0
18.09.2018 11:00:00 21,5 17,9 0 0 19 10 S 0,0
18.09.2018 10:00:00 18,9 16,9 1 0 20 11 S 0,5
18.09.2018 09:00:00 18,7 16,5 0 0 1 1 N 0,0
18.09.2018 08:00:00 18,0 15,8 0 0 1 0 N -
18.09.2018 07:00:00 18,2 15,4 0 0 13 7 SE 0,0
18.09.2018 06:00:00 18,9 15,3 0 0 19 10 SSW 0,0
18.09.2018 05:00:00 19,3 15,8 5 3 17 9 ESE 0,0
18.09.2018 04:00:00 19,2 16,8 3 2 19 11 SE 0,0
18.09.2018 03:00:00 19,6 17,5 3 2 13 7 SE 0,0
18.09.2018 02:00:00 19,2 17,1 4 2 17 9 SE -
18.09.2018 01:00:00 18,0 16,0 1 1 9 5 E 0,0
18.09.2018 00:00:00 18,0 16,0 0 0 3 2 N 0,0
17.09.2018 23:00:00 18,7 16,6 0 0 2 1 SSE 0,0
17.09.2018 22:00:00 19,8 17,8 0 0 11 6 N 0,0
17.09.2018 21:00:00 20,4 18,2 0 0 13 7 N 0,0
17.09.2018 20:00:00 21,2 18,8 4 2 12 6 ESE -
17.09.2018 19:00:00 21,8 19,0 2 1 14 7 SSE 0,0
17.09.2018 18:00:00 22,1 18,9 4 2 18 10 ESE 0,0
17.09.2018 17:00:00 21,6 18,6 4 2 21 12 S 0,0
17.09.2018 16:00:00 22,7 18,5 5 3 16 8 SSE 0,0
17.09.2018 15:00:00 23,7 18,5 2 1 16 8 E 0,0
17.09.2018 14:00:00 24,1 17,9 4 2 13 7 E -
17.09.2018 13:00:00 24,6 17,3 4 2 15 8 SE 0,0
17.09.2018 12:00:00 24,5 17,5 3 2 10 6 SSE 0,0
17.09.2018 11:00:00 23,1 18,4 4 2 14 8 SE 0,0
17.09.2018 10:00:00 21,4 19,5 6 4 13 7 S 0,0
17.09.2018 09:00:00 18,2 16,4 0 0 0 0 N 0,0
17.09.2018 08:00:00 16,1 14,2 0 0 0 0 N -
17.09.2018 07:00:00 16,0 14,1 0 0 0 0 N 0,0
17.09.2018 06:00:00 16,5 14,7 0 0 0 0 N 0,0
17.09.2018 05:00:00 17,2 15,3 0 0 0 0 N 0,0
17.09.2018 04:00:00 17,8 16,0 0 0 4 2 N 0,0
17.09.2018 03:00:00 18,7 16,8 0 0 10 6 SW 0,0
17.09.2018 02:00:00 18,9 17,1 4 2 13 7 SE -
17.09.2018 01:00:00 18,5 16,6 0 0 0 0 N 0,0
17.09.2018 00:00:00 19,1 17,2 0 0 10 5 N 0,0
16.09.2018 23:00:00 19,5 17,5 0 0 0 0 N 0,0
16.09.2018 22:00:00 19,7 17,6 0 0 0 0 N 0,0
16.09.2018 21:00:00 20,4 18,2 0 0 5 3 N 0,0
16.09.2018 20:00:00 21,0 18,8 0 0 8 5 SSE -
16.09.2018 19:00:00 21,2 19,0 0 0 6 4 ESE 0,0
16.09.2018 18:00:00 21,9 18,5 1 1 16 8 E 0,0
16.09.2018 17:00:00 21,1 18,8 6 3 13 7 SE 0,1
16.09.2018 16:00:00 20,4 18,0 4 2 19 10 ESE 2,9
16.09.2018 15:00:00 22,0 18,2 1 1 12 6 NE 0,0
16.09.2018 14:00:00 22,5 18,5 0 0 8 4 N -
16.09.2018 13:00:00 23,5 17,5 1 1 12 7 W 0,0
16.09.2018 12:00:00 21,3 18,1 4 2 13 7 SE 0,0
16.09.2018 11:00:00 20,9 18,8 5 3 18 10 ESE 0,0
16.09.2018 10:00:00 20,0 18,2 7 4 17 9 ESE 0,0
16.09.2018 09:00:00 19,2 17,4 0 0 0 0 N 0,0
16.09.2018 08:00:00 18,2 16,4 0 0 9 5 N -
16.09.2018 07:00:00 18,2 16,4 0 0 7 4 N 0,0
16.09.2018 06:00:00 18,7 16,8 1 1 15 8 SSE 0,0
16.09.2018 05:00:00 18,5 16,6 3 1 12 6 SSE 0,0
16.09.2018 04:00:00 17,2 15,3 0 0 0 0 N 0,0
16.09.2018 03:00:00 17,5 15,7 0 0 0 0 N 0,0
16.09.2018 02:00:00 18,0 16,0 0 0 6 3 N -
16.09.2018 01:00:00 19,2 17,1 1 1 20 11 SE 0,0
16.09.2018 00:00:00 19,1 17,2 5 3 17 9 SSE 0,0
15.09.2018 23:00:00 18,7 16,8 8 4 18 10 S 0,0

tt = Température de l'air
td = dewpoint
ff = Vitesse du vent
fx = gusts
dd = Direction du vent
rr = Quantités de précipitations

stations d'obs. à proximité